sensor_id;sensor_type;location;lat;lon;timestamp;temperature;humidity
33717;DHT22;20046;50.746;7.072;2024-03-08T00:02:03;4.10;99.90
33717;DHT22;20046;50.746;7.072;2024-03-08T00:04:29;4.10;99.90
33717;DHT22;20046;50.746;7.072;2024-03-08T00:06:54;4.00;99.90
33717;DHT22;20046;50.746;7.072;2024-03-08T00:09:20;3.90;99.90
33717;DHT22;20046;50.746;7.072;2024-03-08T00:11:47;3.90;99.90
33717;DHT22;20046;50.746;7.072;2024-03-08T00:14:14;3.80;99.90
33717;DHT22;20046;50.746;7.072;2024-03-08T00:16:39;3.70;99.90
33717;DHT22;20046;50.746;7.072;2024-03-08T00:19:09;3.60;99.90
33717;DHT22;20046;50.746;7.072;2024-03-08T00:21:35;3.50;99.90
33717;DHT22;20046;50.746;7.072;2024-03-08T00:24:01;3.50;99.90
33717;DHT22;20046;50.746;7.072;2024-03-08T00:26:26;3.40;99.90
33717;DHT22;20046;50.746;7.072;2024-03-08T00:28:52;3.40;99.90
33717;DHT22;20046;50.746;7.072;2024-03-08T00:31:19;3.40;99.90
33717;DHT22;20046;50.746;7.072;2024-03-08T00:33:44;3.30;99.90
33717;DHT22;20046;50.746;7.072;2024-03-08T00:36:10;3.30;99.90
33717;DHT22;20046;50.746;7.072;2024-03-08T00:38:35;3.30;99.90
33717;DHT22;20046;50.746;7.072;2024-03-08T00:41:01;3.30;99.90
33717;DHT22;20046;50.746;7.072;2024-03-08T00:43:27;3.20;99.90
33717;DHT22;20046;50.746;7.072;2024-03-08T00:45:53;3.20;99.90
33717;DHT22;20046;50.746;7.072;2024-03-08T00:48:18;3.10;99.90
33717;DHT22;20046;50.746;7.072;2024-03-08T00:50:44;3.00;99.90
33717;DHT22;20046;50.746;7.072;2024-03-08T00:53:13;3.10;99.90
33717;DHT22;20046;50.746;7.072;2024-03-08T00:55:39;3.10;99.90
33717;DHT22;20046;50.746;7.072;2024-03-08T00:58:05;3.10;99.90
33717;DHT22;20046;50.746;7.072;2024-03-08T01:00:30;3.10;99.90
33717;DHT22;20046;50.746;7.072;2024-03-08T01:02:56;3.20;99.90
33717;DHT22;20046;50.746;7.072;2024-03-08T01:05:22;3.20;99.90
33717;DHT22;20046;50.746;7.072;2024-03-08T01:07:50;3.20;99.90
33717;DHT22;20046;50.746;7.072;2024-03-08T01:10:15;3.30;99.90
33717;DHT22;20046;50.746;7.072;2024-03-08T01:12:41;3.30;99.90
33717;DHT22;20046;50.746;7.072;2024-03-08T01:15:09;3.30;99.90
33717;DHT22;20046;50.746;7.072;2024-03-08T01:17:35;3.30;99.90
33717;DHT22;20046;50.746;7.072;2024-03-08T01:20:02;3.30;99.90
33717;DHT22;20046;50.746;7.072;2024-03-08T01:22:28;3.30;99.90
33717;DHT22;20046;50.746;7.072;2024-03-08T01:24:55;3.40;99.90
33717;DHT22;20046;50.746;7.072;2024-03-08T01:27:21;3.30;99.90
33717;DHT22;20046;50.746;7.072;2024-03-08T01:29:46;3.30;99.90
33717;DHT22;20046;50.746;7.072;2024-03-08T01:32:12;3.30;99.90
33717;DHT22;20046;50.746;7.072;2024-03-08T01:34:37;3.30;99.90
33717;DHT22;20046;50.746;7.072;2024-03-08T01:37:03;3.30;99.90
33717;DHT22;20046;50.746;7.072;2024-03-08T01:39:29;3.30;99.90
33717;DHT22;20046;50.746;7.072;2024-03-08T01:41:54;3.30;99.90
33717;DHT22;20046;50.746;7.072;2024-03-08T01:44:20;3.30;99.90
33717;DHT22;20046;50.746;7.072;2024-03-08T01:46:46;3.30;99.90
33717;DHT22;20046;50.746;7.072;2024-03-08T01:49:13;3.30;99.90
33717;DHT22;20046;50.746;7.072;2024-03-08T01:51:40;3.30;99.90
33717;DHT22;20046;50.746;7.072;2024-03-08T01:54:07;3.30;99.90
33717;DHT22;20046;50.746;7.072;2024-03-08T01:56:36;3.30;99.90
33717;DHT22;20046;50.746;7.072;2024-03-08T01:59:02;3.30;99.90
33717;DHT22;20046;50.746;7.072;2024-03-08T02:01:28;3.30;99.90
33717;DHT22;20046;50.746;7.072;2024-03-08T02:03:54;3.30;99.90
33717;DHT22;20046;50.746;7.072;2024-03-08T02:06:19;3.20;99.90
33717;DHT22;20046;50.746;7.072;2024-03-08T02:08:46;3.20;99.90
33717;DHT22;20046;50.746;7.072;2024-03-08T02:11:12;3.20;99.90
33717;DHT22;20046;50.746;7.072;2024-03-08T02:13:38;3.20;99.90
33717;DHT22;20046;50.746;7.072;2024-03-08T02:16:04;3.20;99.90
33717;DHT22;20046;50.746;7.072;2024-03-08T02:18:34;3.20;99.90
33717;DHT22;20046;50.746;7.072;2024-03-08T02:21:06;3.20;99.90
33717;DHT22;20046;50.746;7.072;2024-03-08T02:23:34;3.20;99.90
33717;DHT22;20046;50.746;7.072;2024-03-08T02:26:00;3.20;99.90
33717;DHT22;20046;50.746;7.072;2024-03-08T02:28:26;3.20;99.90
33717;DHT22;20046;50.746;7.072;2024-03-08T02:30:52;3.20;99.90
33717;DHT22;20046;50.746;7.072;2024-03-08T02:33:21;3.20;99.90
33717;DHT22;20046;50.746;7.072;2024-03-08T02:35:48;3.20;99.90
33717;DHT22;20046;50.746;7.072;2024-03-08T02:38:14;3.20;99.90
33717;DHT22;20046;50.746;7.072;2024-03-08T02:40:42;3.20;99.90
33717;DHT22;20046;50.746;7.072;2024-03-08T02:43:12;3.20;99.90
33717;DHT22;20046;50.746;7.072;2024-03-08T02:45:38;3.10;99.90
33717;DHT22;20046;50.746;7.072;2024-03-08T02:48:04;3.20;99.90
33717;DHT22;20046;50.746;7.072;2024-03-08T02:50:32;3.10;99.90
33717;DHT22;20046;50.746;7.072;2024-03-08T02:52:57;3.10;99.90
33717;DHT22;20046;50.746;7.072;2024-03-08T02:55:23;3.10;99.90
33717;DHT22;20046;50.746;7.072;2024-03-08T02:57:51;3.10;99.90
33717;DHT22;20046;50.746;7.072;2024-03-08T03:00:18;3.10;99.90
33717;DHT22;20046;50.746;7.072;2024-03-08T03:02:45;3.00;99.90
33717;DHT22;20046;50.746;7.072;2024-03-08T03:05:11;3.00;99.90
33717;DHT22;20046;50.746;7.072;2024-03-08T03:07:37;2.90;99.90
33717;DHT22;20046;50.746;7.072;2024-03-08T03:10:03;2.80;99.90
33717;DHT22;20046;50.746;7.072;2024-03-08T03:12:30;2.80;99.90
33717;DHT22;20046;50.746;7.072;2024-03-08T03:14:56;2.80;99.90
33717;DHT22;20046;50.746;7.072;2024-03-08T03:17:26;2.80;99.90
33717;DHT22;20046;50.746;7.072;2024-03-08T03:19:52;2.90;99.90
33717;DHT22;20046;50.746;7.072;2024-03-08T03:22:18;2.80;99.90
33717;DHT22;20046;50.746;7.072;2024-03-08T03:24:45;2.80;99.90
33717;DHT22;20046;50.746;7.072;2024-03-08T03:27:12;2.80;99.90
33717;DHT22;20046;50.746;7.072;2024-03-08T03:29:42;2.70;99.90
33717;DHT22;20046;50.746;7.072;2024-03-08T03:32:14;2.70;99.90
33717;DHT22;20046;50.746;7.072;2024-03-08T03:34:40;2.70;99.90
33717;DHT22;20046;50.746;7.072;2024-03-08T03:37:06;2.70;99.90
33717;DHT22;20046;50.746;7.072;2024-03-08T03:39:38;2.70;99.90
33717;DHT22;20046;50.746;7.072;2024-03-08T03:42:15;2.70;99.90
33717;DHT22;20046;50.746;7.072;2024-03-08T03:44:44;2.60;99.90
33717;DHT22;20046;50.746;7.072;2024-03-08T03:47:10;2.60;99.90
33717;DHT22;20046;50.746;7.072;2024-03-08T03:49:35;2.60;99.90
33717;DHT22;20046;50.746;7.072;2024-03-08T03:52:01;2.60;99.90
33717;DHT22;20046;50.746;7.072;2024-03-08T03:54:26;2.60;99.90
33717;DHT22;20046;50.746;7.072;2024-03-08T03:56:52;2.60;99.90
33717;DHT22;20046;50.746;7.072;2024-03-08T03:59:19;2.50;99.90
33717;DHT22;20046;50.746;7.072;2024-03-08T04:01:44;2.50;99.90
33717;DHT22;20046;50.746;7.072;2024-03-08T04:04:10;2.50;99.90
33717;DHT22;20046;50.746;7.072;2024-03-08T04:06:37;2.40;99.90
33717;DHT22;20046;50.746;7.072;2024-03-08T04:09:03;2.40;99.90
33717;DHT22;20046;50.746;7.072;2024-03-08T04:11:30;2.40;99.90
33717;DHT22;20046;50.746;7.072;2024-03-08T04:13:55;2.30;99.90
33717;DHT22;20046;50.746;7.072;2024-03-08T04:16:21;2.30;99.90
33717;DHT22;20046;50.746;7.072;2024-03-08T04:18:47;2.30;99.90
33717;DHT22;20046;50.746;7.072;2024-03-08T04:21:13;2.30;99.90
33717;DHT22;20046;50.746;7.072;2024-03-08T04:23:39;2.30;99.90
33717;DHT22;20046;50.746;7.072;2024-03-08T04:26:05;2.30;99.90
33717;DHT22;20046;50.746;7.072;2024-03-08T04:28:31;2.30;99.90
33717;DHT22;20046;50.746;7.072;2024-03-08T04:30:58;2.30;99.90
33717;DHT22;20046;50.746;7.072;2024-03-08T04:33:26;2.30;99.90
33717;DHT22;20046;50.746;7.072;2024-03-08T04:35:51;2.30;99.90
33717;DHT22;20046;50.746;7.072;2024-03-08T04:38:17;2.30;99.90
33717;DHT22;20046;50.746;7.072;2024-03-08T04:40:43;2.30;99.90
33717;DHT22;20046;50.746;7.072;2024-03-08T04:43:09;2.30;99.90
33717;DHT22;20046;50.746;7.072;2024-03-08T04:45:36;2.30;99.90
33717;DHT22;20046;50.746;7.072;2024-03-08T04:48:02;2.30;99.90
33717;DHT22;20046;50.746;7.072;2024-03-08T04:50:27;2.40;99.90
33717;DHT22;20046;50.746;7.072;2024-03-08T04:52:55;2.50;99.90
33717;DHT22;20046;50.746;7.072;2024-03-08T04:55:21;2.50;99.90
33717;DHT22;20046;50.746;7.072;2024-03-08T04:57:47;2.60;99.90
33717;DHT22;20046;50.746;7.072;2024-03-08T05:00:14;2.60;99.90
33717;DHT22;20046;50.746;7.072;2024-03-08T05:02:41;2.70;99.90
33717;DHT22;20046;50.746;7.072;2024-03-08T05:05:07;2.80;99.90
33717;DHT22;20046;50.746;7.072;2024-03-08T05:07:33;2.80;99.90
33717;DHT22;20046;50.746;7.072;2024-03-08T05:09:59;2.80;99.90
33717;DHT22;20046;50.746;7.072;2024-03-08T05:12:25;2.80;99.90
33717;DHT22;20046;50.746;7.072;2024-03-08T05:14:51;2.80;99.90
33717;DHT22;20046;50.746;7.072;2024-03-08T05:17:16;2.80;99.90
33717;DHT22;20046;50.746;7.072;2024-03-08T05:19:42;2.70;99.90
33717;DHT22;20046;50.746;7.072;2024-03-08T05:22:09;2.70;99.90
33717;DHT22;20046;50.746;7.072;2024-03-08T05:24:34;2.60;99.90
33717;DHT22;20046;50.746;7.072;2024-03-08T05:27:01;2.60;99.90
33717;DHT22;20046;50.746;7.072;2024-03-08T05:29:28;2.60;99.90
33717;DHT22;20046;50.746;7.072;2024-03-08T05:31:54;2.60;99.90
33717;DHT22;20046;50.746;7.072;2024-03-08T05:34:20;2.60;99.90
33717;DHT22;20046;50.746;7.072;2024-03-08T05:36:47;2.60;99.90
33717;DHT22;20046;50.746;7.072;2024-03-08T05:39:15;2.50;99.90
33717;DHT22;20046;50.746;7.072;2024-03-08T05:41:41;2.50;99.90
33717;DHT22;20046;50.746;7.072;2024-03-08T05:44:08;2.50;99.90
33717;DHT22;20046;50.746;7.072;2024-03-08T05:46:34;2.50;99.90
33717;DHT22;20046;50.746;7.072;2024-03-08T05:49:01;2.40;99.90
33717;DHT22;20046;50.746;7.072;2024-03-08T05:51:34;2.40;99.90
33717;DHT22;20046;50.746;7.072;2024-03-08T05:54:01;2.40;99.90
33717;DHT22;20046;50.746;7.072;2024-03-08T05:56:28;2.30;99.90
33717;DHT22;20046;50.746;7.072;2024-03-08T05:58:54;2.30;99.90
33717;DHT22;20046;50.746;7.072;2024-03-08T06:01:20;2.30;99.90
33717;DHT22;20046;50.746;7.072;2024-03-08T06:03:45;2.30;99.90
33717;DHT22;20046;50.746;7.072;2024-03-08T06:06:13;2.30;99.90
33717;DHT22;20046;50.746;7.072;2024-03-08T06:08:39;2.30;99.90
33717;DHT22;20046;50.746;7.072;2024-03-08T06:11:05;2.30;99.90
33717;DHT22;20046;50.746;7.072;2024-03-08T06:13:33;2.30;99.90
33717;DHT22;20046;50.746;7.072;2024-03-08T06:15:59;2.30;99.90
33717;DHT22;20046;50.746;7.072;2024-03-08T06:18:26;2.30;99.90
33717;DHT22;20046;50.746;7.072;2024-03-08T06:20:51;2.30;99.90
33717;DHT22;20046;50.746;7.072;2024-03-08T06:23:18;2.30;99.90
33717;DHT22;20046;50.746;7.072;2024-03-08T06:25:46;2.30;99.90
33717;DHT22;20046;50.746;7.072;2024-03-08T06:28:12;2.30;99.90
33717;DHT22;20046;50.746;7.072;2024-03-08T06:30:39;2.40;99.90
33717;DHT22;20046;50.746;7.072;2024-03-08T06:33:05;2.50;99.90
33717;DHT22;20046;50.746;7.072;2024-03-08T06:35:31;2.50;99.90
33717;DHT22;20046;50.746;7.072;2024-03-08T06:37:58;2.60;99.90
33717;DHT22;20046;50.746;7.072;2024-03-08T06:40:23;2.60;99.90
33717;DHT22;20046;50.746;7.072;2024-03-08T06:42:49;2.70;99.90
33717;DHT22;20046;50.746;7.072;2024-03-08T06:45:17;2.80;99.90
33717;DHT22;20046;50.746;7.072;2024-03-08T06:47:46;2.90;99.90
33717;DHT22;20046;50.746;7.072;2024-03-08T06:50:12;3.10;99.90
33717;DHT22;20046;50.746;7.072;2024-03-08T06:52:38;3.30;99.90
33717;DHT22;20046;50.746;7.072;2024-03-08T06:55:04;3.60;99.90
33717;DHT22;20046;50.746;7.072;2024-03-08T06:57:31;3.90;99.90
33717;DHT22;20046;50.746;7.072;2024-03-08T06:59:56;4.20;99.90
33717;DHT22;20046;50.746;7.072;2024-03-08T07:02:25;4.50;99.90
33717;DHT22;20046;50.746;7.072;2024-03-08T07:04:51;4.80;99.90
33717;DHT22;20046;50.746;7.072;2024-03-08T07:07:18;4.90;99.90
33717;DHT22;20046;50.746;7.072;2024-03-08T07:09:46;5.20;99.90
33717;DHT22;20046;50.746;7.072;2024-03-08T07:12:11;5.50;99.90
33717;DHT22;20046;50.746;7.072;2024-03-08T07:14:39;5.50;99.90
33717;DHT22;20046;50.746;7.072;2024-03-08T07:17:07;5.60;99.90
33717;DHT22;20046;50.746;7.072;2024-03-08T07:19:37;5.60;99.90
33717;DHT22;20046;50.746;7.072;2024-03-08T07:22:04;5.80;99.90
33717;DHT22;20046;50.746;7.072;2024-03-08T07:24:30;5.70;99.90
33717;DHT22;20046;50.746;7.072;2024-03-08T07:27:16;5.80;99.90
33717;DHT22;20046;50.746;7.072;2024-03-08T07:29:41;5.90;99.90
33717;DHT22;20046;50.746;7.072;2024-03-08T07:32:07;6.10;99.90
33717;DHT22;20046;50.746;7.072;2024-03-08T07:34:49;6.20;99.90
33717;DHT22;20046;50.746;7.072;2024-03-08T07:37:18;5.90;99.90
33717;DHT22;20046;50.746;7.072;2024-03-08T07:39:46;6.10;99.90
33717;DHT22;20046;50.746;7.072;2024-03-08T07:42:12;6.20;99.90
33717;DHT22;20046;50.746;7.072;2024-03-08T07:44:38;6.50;99.90
33717;DHT22;20046;50.746;7.072;2024-03-08T07:49:39;7.00;99.90
33717;DHT22;20046;50.746;7.072;2024-03-08T07:52:05;7.10;99.90
33717;DHT22;20046;50.746;7.072;2024-03-08T07:54:33;7.00;99.90
33717;DHT22;20046;50.746;7.072;2024-03-08T07:56:59;6.90;99.90
33717;DHT22;20046;50.746;7.072;2024-03-08T07:59:24;7.10;99.90
33717;DHT22;20046;50.746;7.072;2024-03-08T08:01:50;7.70;99.90
33717;DHT22;20046;50.746;7.072;2024-03-08T08:04:15;8.20;99.90
33717;DHT22;20046;50.746;7.072;2024-03-08T08:07:05;8.60;99.90
33717;DHT22;20046;50.746;7.072;2024-03-08T08:09:32;8.70;99.90
33717;DHT22;20046;50.746;7.072;2024-03-08T08:12:00;8.60;99.90
33717;DHT22;20046;50.746;7.072;2024-03-08T08:14:28;8.70;99.90
33717;DHT22;20046;50.746;7.072;2024-03-08T08:16:54;9.00;99.90
33717;DHT22;20046;50.746;7.072;2024-03-08T08:19:21;9.30;99.90
33717;DHT22;20046;50.746;7.072;2024-03-08T08:21:46;9.80;99.90
33717;DHT22;20046;50.746;7.072;2024-03-08T08:24:12;10.20;99.90
33717;DHT22;20046;50.746;7.072;2024-03-08T08:26:38;10.20;99.90
33717;DHT22;20046;50.746;7.072;2024-03-08T08:29:03;9.90;99.90
33717;DHT22;20046;50.746;7.072;2024-03-08T08:31:32;9.80;99.90
33717;DHT22;20046;50.746;7.072;2024-03-08T08:33:57;9.80;99.90
33717;DHT22;20046;50.746;7.072;2024-03-08T08:39:35;9.80;99.90
33717;DHT22;20046;50.746;7.072;2024-03-08T08:42:00;9.20;99.90
33717;DHT22;20046;50.746;7.072;2024-03-08T08:44:26;9.00;99.90
33717;DHT22;20046;50.746;7.072;2024-03-08T08:46:52;9.10;99.90
33717;DHT22;20046;50.746;7.072;2024-03-08T08:49:19;9.20;99.90
33717;DHT22;20046;50.746;7.072;2024-03-08T08:51:49;9.10;99.90
33717;DHT22;20046;50.746;7.072;2024-03-08T08:54:15;9.10;99.90
33717;DHT22;20046;50.746;7.072;2024-03-08T08:56:42;9.40;99.90
33717;DHT22;20046;50.746;7.072;2024-03-08T08:59:10;9.50;99.90
33717;DHT22;20046;50.746;7.072;2024-03-08T09:01:39;9.60;99.90
33717;DHT22;20046;50.746;7.072;2024-03-08T09:04:05;9.90;99.90
33717;DHT22;20046;50.746;7.072;2024-03-08T09:09:42;10.70;99.90
33717;DHT22;20046;50.746;7.072;2024-03-08T09:12:07;10.70;99.90
33717;DHT22;20046;50.746;7.072;2024-03-08T09:14:33;11.10;99.90
33717;DHT22;20046;50.746;7.072;2024-03-08T09:22:04;11.10;99.00
33717;DHT22;20046;50.746;7.072;2024-03-08T09:24:30;11.30;98.90
33717;DHT22;20046;50.746;7.072;2024-03-08T09:26:56;11.80;98.40
33717;DHT22;20046;50.746;7.072;2024-03-08T09:29:24;12.30;98.10
33717;DHT22;20046;50.746;7.072;2024-03-08T09:31:49;12.60;97.00
33717;DHT22;20046;50.746;7.072;2024-03-08T09:34:15;13.10;97.10
33717;DHT22;20046;50.746;7.072;2024-03-08T09:36:41;13.50;96.60
33717;DHT22;20046;50.746;7.072;2024-03-08T09:39:07;13.30;96.20
33717;DHT22;20046;50.746;7.072;2024-03-08T09:41:33;14.00;95.60
33717;DHT22;20046;50.746;7.072;2024-03-08T09:44:00;14.10;95.10
33717;DHT22;20046;50.746;7.072;2024-03-08T09:51:36;13.60;95.20
33717;DHT22;20046;50.746;7.072;2024-03-08T09:54:05;13.60;94.30
33717;DHT22;20046;50.746;7.072;2024-03-08T09:56:35;14.00;94.30
33717;DHT22;20046;50.746;7.072;2024-03-08T09:59:02;14.10;93.90
33717;DHT22;20046;50.746;7.072;2024-03-08T10:01:30;13.40;93.80
33717;DHT22;20046;50.746;7.072;2024-03-08T10:03:57;13.50;94.20
33717;DHT22;20046;50.746;7.072;2024-03-08T10:06:23;13.80;94.10
33717;DHT22;20046;50.746;7.072;2024-03-08T10:08:49;13.70;93.90
33717;DHT22;20046;50.746;7.072;2024-03-08T10:11:17;13.20;94.00
33717;DHT22;20046;50.746;7.072;2024-03-08T10:13:44;12.80;94.20
33717;DHT22;20046;50.746;7.072;2024-03-08T10:18:47;13.80;94.00
33717;DHT22;20046;50.746;7.072;2024-03-08T10:21:12;14.50;93.20
33717;DHT22;20046;50.746;7.072;2024-03-08T10:23:40;14.30;92.40
33717;DHT22;20046;50.746;7.072;2024-03-08T10:28:50;13.40;93.00
33717;DHT22;20046;50.746;7.072;2024-03-08T10:31:16;13.70;92.80
33717;DHT22;20046;50.746;7.072;2024-03-08T10:33:42;13.70;93.40
33717;DHT22;20046;50.746;7.072;2024-03-08T10:36:10;13.30;92.90
33717;DHT22;20046;50.746;7.072;2024-03-08T10:38:37;13.60;93.40
33717;DHT22;20046;50.746;7.072;2024-03-08T10:41:07;13.90;92.80
33717;DHT22;20046;50.746;7.072;2024-03-08T10:48:49;13.80;92.20
33717;DHT22;20046;50.746;7.072;2024-03-08T10:51:16;14.30;91.90
33717;DHT22;20046;50.746;7.072;2024-03-08T10:53:42;13.90;91.90
33717;DHT22;20046;50.746;7.072;2024-03-08T10:56:09;13.90;92.40
33717;DHT22;20046;50.746;7.072;2024-03-08T10:58:36;13.50;91.80
33717;DHT22;20046;50.746;7.072;2024-03-08T11:01:02;13.20;92.50
33717;DHT22;20046;50.746;7.072;2024-03-08T11:06:17;13.00;93.20
33717;DHT22;20046;50.746;7.072;2024-03-08T11:08:43;13.20;92.60
33717;DHT22;20046;50.746;7.072;2024-03-08T11:11:26;12.90;92.30
33717;DHT22;20046;50.746;7.072;2024-03-08T11:14:00;13.10;92.60
33717;DHT22;20046;50.746;7.072;2024-03-08T11:21:36;13.20;92.40
33717;DHT22;20046;50.746;7.072;2024-03-08T11:24:11;14.00;92.10
33717;DHT22;20046;50.746;7.072;2024-03-08T11:26:37;14.10;91.30
33717;DHT22;20046;50.746;7.072;2024-03-08T11:29:33;14.10;90.90
33717;DHT22;20046;50.746;7.072;2024-03-08T11:32:10;14.60;91.50
33717;DHT22;20046;50.746;7.072;2024-03-08T11:34:39;15.30;90.50
33717;DHT22;20046;50.746;7.072;2024-03-08T11:37:10;16.40;88.00
33717;DHT22;20046;50.746;7.072;2024-03-08T11:39:39;16.10;87.40
33717;DHT22;20046;50.746;7.072;2024-03-08T11:42:05;16.80;85.00
33717;DHT22;20046;50.746;7.072;2024-03-08T11:44:32;16.90;84.60
33717;DHT22;20046;50.746;7.072;2024-03-08T11:46:57;17.80;84.30
33717;DHT22;20046;50.746;7.072;2024-03-08T11:49:23;18.10;80.60
33717;DHT22;20046;50.746;7.072;2024-03-08T11:51:52;17.70;79.80
33717;DHT22;20046;50.746;7.072;2024-03-08T11:54:18;17.60;79.00
33717;DHT22;20046;50.746;7.072;2024-03-08T11:56:44;17.60;78.80
33717;DHT22;20046;50.746;7.072;2024-03-08T11:59:12;17.30;78.20
33717;DHT22;20046;50.746;7.072;2024-03-08T12:01:38;16.80;77.90
33717;DHT22;20046;50.746;7.072;2024-03-08T12:04:04;17.10;78.20
33717;DHT22;20046;50.746;7.072;2024-03-08T12:06:38;17.00;77.70
33717;DHT22;20046;50.746;7.072;2024-03-08T12:09:11;17.40;77.40
33717;DHT22;20046;50.746;7.072;2024-03-08T12:11:37;17.40;76.70
33717;DHT22;20046;50.746;7.072;2024-03-08T12:14:03;17.10;75.70
33717;DHT22;20046;50.746;7.072;2024-03-08T12:16:29;17.00;76.10
33717;DHT22;20046;50.746;7.072;2024-03-08T12:18:55;18.10;75.80
33717;DHT22;20046;50.746;7.072;2024-03-08T12:21:21;18.30;73.60
33717;DHT22;20046;50.746;7.072;2024-03-08T12:26:30;18.10;72.80
33717;DHT22;20046;50.746;7.072;2024-03-08T12:29:17;18.50;72.30
33717;DHT22;20046;50.746;7.072;2024-03-08T12:31:46;18.20;70.80
33717;DHT22;20046;50.746;7.072;2024-03-08T12:34:13;18.30;71.70
33717;DHT22;20046;50.746;7.072;2024-03-08T12:36:51;17.70;71.70
33717;DHT22;20046;50.746;7.072;2024-03-08T12:39:23;18.10;72.40
33717;DHT22;20046;50.746;7.072;2024-03-08T12:41:52;19.00;69.50
33717;DHT22;20046;50.746;7.072;2024-03-08T12:44:19;19.10;69.90
33717;DHT22;20046;50.746;7.072;2024-03-08T12:46:47;19.60;68.60
33717;DHT22;20046;50.746;7.072;2024-03-08T12:49:13;21.00;67.10
33717;DHT22;20046;50.746;7.072;2024-03-08T12:51:43;19.90;66.80
33717;DHT22;20046;50.746;7.072;2024-03-08T12:54:10;20.20;66.10
33717;DHT22;20046;50.746;7.072;2024-03-08T12:56:36;20.20;64.70
33717;DHT22;20046;50.746;7.072;2024-03-08T12:59:07;19.80;64.50
33717;DHT22;20046;50.746;7.072;2024-03-08T13:01:34;20.10;65.10
33717;DHT22;20046;50.746;7.072;2024-03-08T13:04:00;19.40;65.10
33717;DHT22;20046;50.746;7.072;2024-03-08T13:06:28;19.70;64.80
33717;DHT22;20046;50.746;7.072;2024-03-08T13:08:54;20.50;64.30
33717;DHT22;20046;50.746;7.072;2024-03-08T13:11:23;21.00;63.00
33717;DHT22;20046;50.746;7.072;2024-03-08T13:13:49;20.00;62.00
33717;DHT22;20046;50.746;7.072;2024-03-08T13:16:15;19.90;63.30
33717;DHT22;20046;50.746;7.072;2024-03-08T13:18:41;19.10;63.60
33717;DHT22;20046;50.746;7.072;2024-03-08T13:21:10;19.90;63.10
33717;DHT22;20046;50.746;7.072;2024-03-08T13:23:37;19.70;62.80
33717;DHT22;20046;50.746;7.072;2024-03-08T13:26:10;20.50;62.00
33717;DHT22;20046;50.746;7.072;2024-03-08T13:28:45;20.10;61.60
33717;DHT22;20046;50.746;7.072;2024-03-08T13:31:12;20.50;61.80
33717;DHT22;20046;50.746;7.072;2024-03-08T13:33:38;19.90;61.20
33717;DHT22;20046;50.746;7.072;2024-03-08T13:36:05;20.90;61.10
33717;DHT22;20046;50.746;7.072;2024-03-08T13:38:32;20.60;59.80
33717;DHT22;20046;50.746;7.072;2024-03-08T13:41:01;19.90;61.70
33717;DHT22;20046;50.746;7.072;2024-03-08T13:43:28;19.10;62.20
33717;DHT22;20046;50.746;7.072;2024-03-08T13:45:54;20.30;62.30
33717;DHT22;20046;50.746;7.072;2024-03-08T13:48:20;19.40;61.60
33717;DHT22;20046;50.746;7.072;2024-03-08T13:50:48;18.80;63.10
33717;DHT22;20046;50.746;7.072;2024-03-08T13:53:14;18.80;64.00
33717;DHT22;20046;50.746;7.072;2024-03-08T13:55:40;19.30;62.30
33717;DHT22;20046;50.746;7.072;2024-03-08T13:58:07;19.40;62.30
33717;DHT22;20046;50.746;7.072;2024-03-08T14:00:36;20.10;62.10
33717;DHT22;20046;50.746;7.072;2024-03-08T14:03:02;20.10;61.40
33717;DHT22;20046;50.746;7.072;2024-03-08T14:05:38;19.00;62.10
33717;DHT22;20046;50.746;7.072;2024-03-08T14:08:05;18.70;63.40
33717;DHT22;20046;50.746;7.072;2024-03-08T14:10:35;18.50;63.80
33717;DHT22;20046;50.746;7.072;2024-03-08T14:13:04;18.10;63.70
33717;DHT22;20046;50.746;7.072;2024-03-08T14:15:32;18.10;65.00
33717;DHT22;20046;50.746;7.072;2024-03-08T14:17:57;18.50;64.50
33717;DHT22;20046;50.746;7.072;2024-03-08T14:20:23;18.70;64.00
33717;DHT22;20046;50.746;7.072;2024-03-08T14:22:54;17.80;65.10
33717;DHT22;20046;50.746;7.072;2024-03-08T14:25:20;17.40;66.10
33717;DHT22;20046;50.746;7.072;2024-03-08T14:27:49;17.70;65.80
33717;DHT22;20046;50.746;7.072;2024-03-08T14:30:15;17.40;65.60
33717;DHT22;20046;50.746;7.072;2024-03-08T14:32:58;17.70;66.10
33717;DHT22;20046;50.746;7.072;2024-03-08T14:35:25;17.40;66.50
33717;DHT22;20046;50.746;7.072;2024-03-08T14:37:51;17.10;67.10
33717;DHT22;20046;50.746;7.072;2024-03-08T14:40:17;17.40;66.50
33717;DHT22;20046;50.746;7.072;2024-03-08T14:42:48;18.10;66.10
33717;DHT22;20046;50.746;7.072;2024-03-08T14:45:15;17.10;66.30
33717;DHT22;20046;50.746;7.072;2024-03-08T14:47:41;17.40;66.00
33717;DHT22;20046;50.746;7.072;2024-03-08T14:50:07;16.70;67.00
33717;DHT22;20046;50.746;7.072;2024-03-08T14:52:35;17.10;68.40
33717;DHT22;20046;50.746;7.072;2024-03-08T14:55:01;17.50;67.80
33717;DHT22;20046;50.746;7.072;2024-03-08T14:57:29;17.00;66.80
33717;DHT22;20046;50.746;7.072;2024-03-08T14:59:58;16.40;67.70
33717;DHT22;20046;50.746;7.072;2024-03-08T15:02:28;16.20;68.40
33717;DHT22;20046;50.746;7.072;2024-03-08T15:04:53;15.90;69.20
33717;DHT22;20046;50.746;7.072;2024-03-08T15:07:23;15.10;70.60
33717;DHT22;20046;50.746;7.072;2024-03-08T15:09:49;15.00;71.70
33717;DHT22;20046;50.746;7.072;2024-03-08T15:12:15;14.50;72.20
33717;DHT22;20046;50.746;7.072;2024-03-08T15:14:41;14.30;72.50
33717;DHT22;20046;50.746;7.072;2024-03-08T15:17:09;14.00;73.40
33717;DHT22;20046;50.746;7.072;2024-03-08T15:19:42;13.40;74.10
33717;DHT22;20046;50.746;7.072;2024-03-08T15:22:08;13.10;74.80
33717;DHT22;20046;50.746;7.072;2024-03-08T15:24:35;12.90;75.60
33717;DHT22;20046;50.746;7.072;2024-03-08T15:27:00;12.80;76.20
33717;DHT22;20046;50.746;7.072;2024-03-08T15:29:27;12.40;76.60
33717;DHT22;20046;50.746;7.072;2024-03-08T15:31:53;12.30;77.20
33717;DHT22;20046;50.746;7.072;2024-03-08T15:34:20;12.20;77.50
33717;DHT22;20046;50.746;7.072;2024-03-08T15:36:49;12.20;78.10
33717;DHT22;20046;50.746;7.072;2024-03-08T15:39:17;12.00;78.10
33717;DHT22;20046;50.746;7.072;2024-03-08T15:41:43;11.90;78.60
33717;DHT22;20046;50.746;7.072;2024-03-08T15:44:10;11.80;78.60
33717;DHT22;20046;50.746;7.072;2024-03-08T15:46:39;11.80;79.00
33717;DHT22;20046;50.746;7.072;2024-03-08T15:49:05;11.60;79.30
33717;DHT22;20046;50.746;7.072;2024-03-08T15:51:32;11.50;79.70
33717;DHT22;20046;50.746;7.072;2024-03-08T15:53:58;11.50;79.90
33717;DHT22;20046;50.746;7.072;2024-03-08T15:56:24;11.50;79.80
33717;DHT22;20046;50.746;7.072;2024-03-08T15:58:51;11.40;80.30
33717;DHT22;20046;50.746;7.072;2024-03-08T16:01:17;11.40;80.20
33717;DHT22;20046;50.746;7.072;2024-03-08T16:03:43;11.30;80.40
33717;DHT22;20046;50.746;7.072;2024-03-08T16:06:11;11.30;81.00
33717;DHT22;20046;50.746;7.072;2024-03-08T16:08:36;11.20;81.40
33717;DHT22;20046;50.746;7.072;2024-03-08T16:11:05;11.20;81.40
33717;DHT22;20046;50.746;7.072;2024-03-08T16:13:35;11.20;81.80
33717;DHT22;20046;50.746;7.072;2024-03-08T16:16:04;11.10;82.10
33717;DHT22;20046;50.746;7.072;2024-03-08T16:18:29;11.10;82.30
33717;DHT22;20046;50.746;7.072;2024-03-08T16:20:56;11.00;82.40